Graham, WA (98338)

8:08 AM PDT on September 05, 2015 (GMT -0700)
86th Street Neighborhood | | Change Station
CLOSE
Current Station
Personal Weather Station
Location: Graham, WA
Elevation: 500 ft
Nearby Weather Stations

Elev 500 ft 47.04 °N, 122.32 °W | Updated 7 seconds ago

Overcast
Overcast
46.0 °F
Feels Like 46 °F
N
0.0
Wind Variable Wind from SSW
Gusts 0.0 mph

Today
High -- | Low -- °F
--% Chance of Precip.
Yesterday
High -- | Low -- °F
Precip. -- in
6:33 AM 7:41 PM
Waning Gibbous, 48% visible
Pressure 30.08 in
Visibility 10.0 miles
Clouds Overcast 5500 ft
Windchill 46 °F
Dew Point 46 °F
Humidity 98%
Rainfall 0.00 in
Snow Depth Not available.
UV 0 out of 12
Pollen 3.10 out of 12
Air Quality Not available.
Flu Activity Not available.
METAR KPLU 051455Z AUTO 00000KT 10SM OVC055 09/09 A3008 RMK AO2
Pressure 30.08 in
Visibility 10.0 miles
Clouds Overcast 5500 ft
Windchill 46 °F
Dew Point 46 °F
Humidity 98%
Rainfall 0.00 in
Snow Depth Not available.
UV 0 out of 12
Pollen 3.10 out of 12
Air Quality Not available.
Flu Activity Not available.
METAR KPLU 051455Z AUTO 00000KT 10SM OVC055 09/09 A3008 RMK AO2

10-Day Weather Forecast

×

Almanac

Astronomy

Sep. 05, 2015 Rise Set
Actual Time
Civil Twilight
Nautical Twilight
Astronomical Twilight
Moon
Length of Visible Light
Length of Day
Tomorrow will be .
, % of the Moon is Illuminated

Today's Extremes

State Highs State Lows

Community

WunderPhotos

Upload Photos

1,852,480 photos uploaded!

WunderBlogs® & News

Nearby

Air Quality

  Air Quality AQ Index Pollutant
Not available.

Snow Depth

Station Depth Elevation

Earthquake Activity

City Distance Mag. Time & Date
Minimum magnitude displayed is 2.5.

Coastal Water Temperatures

Place Temperature

Stations

Nearby Weather Stations

Station Location Temp. Windchill Dew Point Humidity Wind Precip. Elev Updated Type